Time;durP1;ratioP1;P1;durP2;ratioP2;P2;SDS_P1;SDS_P2;PMS_P1;PMS_P2;Temp;Humidity;BMP_temperature;BMP_pressure;BME280_temperature;BME280_humidity;BME280_pressure;Samples;Min_cycle;Max_cycle;Signal;HPM_P1;HPM_P2
2023/06/26 00:01:39;;;;;;;15.20;7.70;;;;;;;17.42;100.00;100135.35;105619;1254;72641;-46
2023/06/26 00:04:07;;;;;;;13.00;7.90;;;;;;;17.43;100.00;100134.26;105517;1254;64034;-41
2023/06/26 00:06:35;;;;;;;8.40;7.40;;;;;;;17.43;100.00;100131.61;105547;1254;71050;-46
2023/06/26 00:09:03;;;;;;;16.20;8.20;;;;;;;17.43;100.00;100125.86;105654;1257;61624;-42
2023/06/26 00:11:33;;;;;;;9.80;8.70;;;;;;;17.43;100.00;100127.09;105576;1254;60009;-45
2023/06/26 00:14:01;;;;;;;12.80;8.80;;;;;;;17.43;100.00;100127.63;105584;1259;74294;-43
2023/06/26 00:16:30;;;;;;;10.00;8.80;;;;;;;17.44;100.00;100130.53;105604;1261;63930;-42
2023/06/26 00:18:59;;;;;;;14.90;10.10;;;;;;;17.45;100.00;100132.38;105586;1259;71399;-43
2023/06/26 00:21:27;;;;;;;10.80;9.50;;;;;;;17.48;100.00;100132.05;105456;1260;60521;-45
2023/06/26 00:23:55;;;;;;;11.90;9.20;;;;;;;17.49;100.00;100134.10;105611;1257;60418;-45
2023/06/26 00:26:24;;;;;;;12.10;8.70;;;;;;;17.51;100.00;100131.50;105711;1257;73820;-44
2023/06/26 00:28:51;;;;;;;13.50;9.00;;;;;;;17.53;100.00;100124.30;105759;1257;63992;-41
2023/06/26 00:31:20;;;;;;;18.60;9.00;;;;;;;17.53;100.00;100122.02;105615;1258;71066;-43
2023/06/26 00:33:47;;;;;;;18.50;10.60;;;;;;;17.51;100.00;100122.98;105604;1255;60753;-41
2023/06/26 00:36:16;;;;;;;16.20;9.60;;;;;;;17.50;100.00;100121.50;105623;1258;59308;-44
2023/06/26 00:38:44;;;;;;;13.00;10.40;;;;;;;17.50;100.00;100117.30;105667;1260;72924;-44
2023/06/26 00:41:12;;;;;;;12.10;10.60;;;;;;;17.50;100.00;100117.80;105589;1258;63989;-43
2023/06/26 00:43:40;;;;;;;14.60;9.90;;;;;;;17.52;100.00;100115.64;105623;1258;72752;-43
2023/06/26 00:46:12;;;;;;;18.00;11.00;;;;;;;17.52;100.00;100118.55;105674;1254;60879;-41
2023/06/26 00:48:42;;;;;;;17.20;11.10;;;;;;;17.53;100.00;100117.98;105623;1255;60536;-42
2023/06/26 00:51:13;;;;;;;20.60;11.50;;;;;;;17.54;100.00;100113.23;105601;1254;73802;-43
2023/06/26 00:53:41;;;;;;;16.30;12.30;;;;;;;17.55;100.00;100110.07;105611;1254;63470;-43
2023/06/26 00:56:08;;;;;;;12.80;11.50;;;;;;;17.55;100.00;100109.55;105598;1260;72638;-41
2023/06/26 00:58:36;;;;;;;22.60;12.10;;;;;;;17.55;100.00;100104.65;105564;1255;61726;-40
2023/06/26 01:01:08;;;;;;;15.30;10.60;;;;;;;17.56;100.00;100104.28;105630;1259;60405;-42
2023/06/26 01:03:41;;;;;;;18.70;11.10;;;;;;;17.57;100.00;100104.03;105680;1258;72720;-41
2023/06/26 01:06:11;;;;;;;15.70;10.70;;;;;;;17.57;100.00;100102.30;105594;1260;63418;-42
2023/06/26 01:08:39;;;;;;;18.30;10.90;;;;;;;17.57;100.00;100101.04;105653;1260;72190;-44
2023/06/26 01:11:07;;;;;;;19.70;10.40;;;;;;;17.59;100.00;100099.95;105525;1258;61678;-42
2023/06/26 01:13:35;;;;;;;19.10;10.50;;;;;;;17.60;100.00;100100.54;105474;1257;60420;-42
2023/06/26 01:16:04;;;;;;;22.90;10.00;;;;;;;17.61;100.00;100096.66;105459;1257;72622;-43
2023/06/26 01:18:32;;;;;;;11.60;9.00;;;;;;;17.60;100.00;100098.49;105527;1264;64028;-44
2023/06/26 01:21:01;;;;;;;13.00;9.70;;;;;;;17.59;100.00;100095.93;105730;1259;71446;-43
2023/06/26 01:23:36;;;;;;;12.90;8.70;;;;;;;17.58;100.00;100091.05;105544;1260;60470;-43
2023/06/26 01:26:07;;;;;;;14.80;9.10;;;;;;;17.59;100.00;100082.85;105368;1254;292242;-41
2023/06/26 01:29:58;;;;;;;13.30;9.70;;;;;;;17.61;100.00;100083.60;102981;1288;600497;-43
2023/06/26 01:32:26;;;;;;;11.50;9.70;;;;;;;17.61;100.00;100083.61;104807;1267;60465;-42
2023/06/26 01:34:54;;;;;;;11.30;10.00;;;;;;;17.62;100.00;100084.61;104843;1271;59330;-43
2023/06/26 01:37:22;;;;;;;11.80;10.00;;;;;;;17.64;100.00;100086.02;104760;1266;71052;-43
2023/06/26 01:39:50;;;;;;;14.10;9.00;;;;;;;17.67;100.00;100085.69;105282;1258;65368;-44
2023/06/26 01:42:18;;;;;;;12.40;8.70;;;;;;;17.71;100.00;100089.02;105373;1260;72389;-42
2023/06/26 01:44:47;;;;;;;12.20;9.20;;;;;;;17.72;100.00;100083.88;105239;1255;443757;-44
2023/06/26 01:47:17;;;;;;;16.60;9.70;;;;;;;17.74;100.00;100085.50;105350;1257;60008;-42
2023/06/26 01:49:52;;;;;;;12.90;9.70;;;;;;;17.73;100.00;100083.96;105543;1256;70949;-42
2023/06/26 01:52:32;;;;;;;13.50;10.70;;;;;;;17.73;100.00;100081.05;105480;1260;65282;-42
2023/06/26 01:55:05;;;;;;;18.00;10.50;;;;;;;17.73;100.00;100076.31;105492;1260;70453;-43
2023/06/26 01:57:33;;;;;;;13.30;10.20;;;;;;;17.74;100.00;100076.27;105534;1258;60403;-43
2023/06/26 02:00:01;;;;;;;13.30;10.60;;;;;;;17.76;100.00;100071.27;105216;1264;59637;-43
2023/06/26 02:02:42;;;;;;;16.00;11.00;;;;;;;17.78;100.00;100082.65;105570;1256;72451;-41
2023/06/26 02:05:13;;;;;;;15.70;12.20;;;;;;;17.76;100.00;100081.52;105404;1257;64364;-43
2023/06/26 02:07:41;;;;;;;18.10;13.20;;;;;;;17.76;100.00;100078.24;105597;1257;71387;-43
2023/06/26 02:10:09;;;;;;;17.10;12.40;;;;;;;17.76;100.00;100075.46;105538;1262;60389;-44
2023/06/26 02:12:37;;;;;;;14.50;12.20;;;;;;;17.76;100.00;100074.70;105729;1260;59634;-43
2023/06/26 02:15:06;;;;;;;14.60;13.10;;;;;;;17.79;100.00;100081.89;105552;1257;71763;-44
2023/06/26 02:17:34;;;;;;;25.60;13.60;;;;;;;17.81;100.00;100074.82;105469;1263;65337;-43
2023/06/26 02:20:02;;;;;;;15.20;13.40;;;;;;;17.82;100.00;100079.66;105511;1263;72752;-45
2023/06/26 02:22:30;;;;;;;20.60;13.70;;;;;;;17.85;100.00;100077.95;105442;1257;60674;-45
2023/06/26 02:24:57;;;;;;;19.20;15.30;;;;;;;17.89;100.00;100078.64;105407;1260;60690;-43
2023/06/26 02:27:25;;;;;;;17.40;14.70;;;;;;;17.90;100.00;100074.69;105523;1256;73031;-44
2023/06/26 02:29:53;;;;;;;17.00;14.60;;;;;;;17.92;100.00;100075.48;105281;1264;63921;-43
2023/06/26 02:32:21;;;;;;;22.90;14.80;;;;;;;17.93;100.00;100074.35;105278;1262;70520;-40
2023/06/26 02:34:51;;;;;;;19.30;16.70;;;;;;;17.94;100.00;100078.14;105621;1259;60515;-45
2023/06/26 02:37:19;;;;;;;26.30;20.50;;;;;;;17.94;100.00;100074.98;105479;1261;59593;-45
2023/06/26 02:39:47;;;;;;;30.70;22.20;;;;;;;17.93;100.00;100070.66;105572;1259;73145;-42
2023/06/26 02:42:14;;;;;;;28.70;24.10;;;;;;;17.93;100.00;100074.16;105594;1260;64050;-43
2023/06/26 02:44:43;;;;;;;24.60;22.00;;;;;;;17.93;100.00;100071.02;105687;1256;71437;-42
2023/06/26 02:47:11;;;;;;;26.30;21.20;;;;;;;17.92;100.00;100071.42;105617;1253;60830;-43
2023/06/26 02:49:41;;;;;;;25.40;22.70;;;;;;;17.91;100.00;100068.02;105630;1260;59646;-42
2023/06/26 02:52:08;;;;;;;24.60;22.00;;;;;;;17.91;100.00;100066.23;105563;1258;72078;-40
2023/06/26 02:54:37;;;;;;;22.80;20.50;;;;;;;17.91;100.00;100063.45;105634;1262;65259;-42
2023/06/26 02:57:04;;;;;;;23.90;20.10;;;;;;;17.90;100.00;100065.96;105710;1259;71439;-43
2023/06/26 02:59:34;;;;;;;20.90;18.80;;;;;;;17.88;100.00;100063.27;105575;1258;60688;-43
2023/06/26 03:02:02;;;;;;;19.20;17.20;;;;;;;17.87;100.00;100063.49;105640;1260;59741;-41
2023/06/26 03:04:39;;;;;;;21.60;17.60;;;;;;;17.86;100.00;100062.86;105555;1254;71988;-41
2023/06/26 03:07:09;;;;;;;17.30;14.60;;;;;;;17.87;100.00;100064.23;105618;1259;63968;-43
2023/06/26 03:09:37;;;;;;;14.70;13.00;;;;;;;17.87;100.00;100057.93;105557;1256;71345;-43
2023/06/26 03:12:06;;;;;;;14.80;12.20;;;;;;;17.87;100.00;100056.18;105539;1258;61734;-41
2023/06/26 03:14:34;;;;;;;19.80;11.50;;;;;;;17.87;100.00;100057.55;105617;1253;60080;-42
2023/06/26 03:17:03;;;;;;;15.10;11.40;;;;;;;17.88;100.00;100057.17;105595;1261;73038;-42
2023/06/26 03:19:33;;;;;;;15.90;9.60;;;;;;;17.90;100.00;100056.55;105616;1254;64549;-41
2023/06/26 03:22:14;;;;;;;13.00;10.00;;;;;;;17.91;100.00;100056.30;105558;1256;71626;-42
2023/06/26 03:24:43;;;;;;;10.30;8.70;;;;;;;17.90;100.00;100056.87;105601;1257;60464;-42
2023/06/26 03:27:11;;;;;;;15.70;9.30;;;;;;;17.88;100.00;100052.44;105642;1260;59992;-43
2023/06/26 03:29:39;;;;;;;10.20;8.40;;;;;;;17.89;100.00;100049.98;105571;1257;72996;-42
2023/06/26 03:32:08;;;;;;;11.70;8.80;;;;;;;17.90;100.00;100049.89;105744;1257;65574;-44
2023/06/26 03:34:36;;;;;;;11.60;8.60;;;;;;;17.92;100.00;100047.33;105834;1257;71738;-45
2023/06/26 03:37:05;;;;;;;9.60;8.70;;;;;;;17.95;100.00;100051.73;105823;1256;60480;-46
2023/06/26 03:39:33;;;;;;;10.70;8.90;;;;;;;17.97;100.00;100045.85;105764;1254;60047;-44
2023/06/26 03:42:01;;;;;;;12.30;8.90;;;;;;;17.99;100.00;100042.61;105671;1254;71825;-43
2023/06/26 03:44:28;;;;;;;9.50;8.60;;;;;;;18.00;100.00;100040.66;105549;1259;63902;-43
2023/06/26 03:46:56;;;;;;;8.70;7.90;;;;;;;18.02;100.00;100043.16;105752;1254;72598;-44
2023/06/26 03:49:25;;;;;;;10.30;8.80;;;;;;;18.06;100.00;100045.05;105772;1257;60407;-44
2023/06/26 03:51:52;;;;;;;10.80;8.20;;;;;;;18.08;100.00;100047.39;105630;1258;59703;-41
2023/06/26 03:54:22;;;;;;;10.50;8.60;;;;;;;18.12;100.00;100044.92;105683;1260;72095;-43
2023/06/26 03:56:49;;;;;;;12.60;8.40;;;;;;;18.15;100.00;100038.95;105627;1260;64044;-42
2023/06/26 03:59:17;;;;;;;10.70;7.40;;;;;;;18.16;100.00;100035.75;105733;1257;72662;-43
2023/06/26 04:01:45;;;;;;;9.90;7.40;;;;;;;18.12;100.00;100037.73;105714;1260;60478;-44
2023/06/26 04:04:13;;;;;;;11.00;7.20;;;;;;;18.08;100.00;100031.67;105746;1254;60056;-44
2023/06/26 04:06:41;;;;;;;8.40;7.60;;;;;;;18.07;100.00;100033.29;105689;1253;72983;-41
2023/06/26 04:09:09;;;;;;;7.60;6.90;;;;;;;18.05;100.00;100036.70;105614;1259;62972;-42
2023/06/26 04:11:37;;;;;;;7.40;6.60;;;;;;;18.05;100.00;100039.31;105784;1257;72723;-43
2023/06/26 04:14:04;;;;;;;7.60;6.90;;;;;;;18.07;100.00;100041.31;105798;1257;60464;-43
2023/06/26 04:16:32;;;;;;;7.80;6.70;;;;;;;18.09;100.00;100043.12;105799;1253;59982;-41
2023/06/26 04:19:00;;;;;;;11.60;6.60;;;;;;;18.13;100.00;100038.92;105757;1257;71990;-44
2023/06/26 04:21:28;;;;;;;11.40;6.80;;;;;;;18.15;100.00;100038.29;105732;1252;65225;-45
2023/06/26 04:23:56;;;;;;;7.40;6.60;;;;;;;18.15;100.00;100034.23;105802;1257;71829;-41
2023/06/26 04:26:23;;;;;;;7.40;6.30;;;;;;;18.14;100.00;100034.09;105847;1253;60368;-42
2023/06/26 04:28:51;;;;;;;10.20;6.60;;;;;;;18.13;100.00;100035.91;105710;1260;60135;-43
2023/06/26 04:31:19;;;;;;;8.90;7.70;;;;;;;18.15;100.00;100037.39;105584;1258;73020;-44
2023/06/26 04:33:50;;;;;;;7.70;6.90;;;;;;;18.16;100.00;100039.98;105652;1258;64093;-43
2023/06/26 04:36:18;;;;;;;13.50;6.70;;;;;;;18.20;100.00;100043.89;105708;1254;71811;-41
2023/06/26 04:38:46;;;;;;;7.30;6.60;;;;;;;18.29;100.00;100044.08;105673;1254;60821;-43
2023/06/26 04:41:13;;;;;;;7.30;6.60;;;;;;;18.36;100.00;100047.56;105574;1257;59999;-42
2023/06/26 04:43:41;;;;;;;8.80;8.00;;;;;;;18.43;100.00;100051.19;105398;1258;73116;-43
2023/06/26 04:46:08;;;;;;;10.20;8.10;;;;;;;18.48;100.00;100061.02;105744;1257;63885;-44
2023/06/26 04:48:36;;;;;;;9.30;8.20;;;;;;;18.50;100.00;100064.39;105768;1257;73310;-44
2023/06/26 04:51:04;;;;;;;8.40;7.60;;;;;;;18.56;100.00;100069.14;105735;1259;61666;-40
2023/06/26 04:53:32;;;;;;;9.30;8.30;;;;;;;18.62;100.00;100072.77;105764;1267;59618;-40
2023/06/26 04:55:59;;;;;;;9.10;8.10;;;;;;;18.68;100.00;100074.16;105680;1257;73435;-44
2023/06/26 04:58:27;;;;;;;9.00;8.20;;;;;;;18.76;100.00;100071.99;105691;1253;65162;-42
2023/06/26 05:00:55;;;;;;;10.40;8.60;;;;;;;18.80;100.00;100075.41;105743;1255;71440;-42
2023/06/26 05:03:22;;;;;;;9.90;8.90;;;;;;;18.80;100.00;100079.21;105710;1257;61615;-43
2023/06/26 05:05:50;;;;;;;10.20;9.10;;;;;;;18.81;100.00;100082.88;105679;1258;59695;-42
2023/06/26 05:08:22;;;;;;;10.70;9.70;;;;;;;18.86;100.00;100086.27;105746;1255;71802;-42
2023/06/26 05:10:50;;;;;;;11.90;9.50;;;;;;;18.90;100.00;100097.70;105612;1254;64307;-42
2023/06/26 05:13:19;;;;;;;11.00;9.90;;;;;;;18.95;100.00;100101.09;105583;1257;71426;-43
2023/06/26 05:15:47;;;;;;;13.00;10.70;;;;;;;18.99;100.00;100104.77;105568;1256;61841;-41
2023/06/26 05:18:14;;;;;;;16.20;10.40;;;;;;;19.00;100.00;100109.23;105555;1258;59638;-41
2023/06/26 05:20:42;;;;;;;10.50;9.50;;;;;;;19.03;100.00;100116.61;105571;1253;72051;-43
2023/06/26 05:23:13;;;;;;;13.30;11.00;;;;;;;19.07;100.00;100119.17;105705;1254;65304;-41
2023/06/26 05:25:42;;;;;;;17.00;13.10;;;;;;;19.13;100.00;100125.09;105666;1257;71454;-42
2023/06/26 05:28:10;;;;;;;12.40;10.60;;;;;;;19.21;100.00;100133.70;105655;1256;60459;-43
2023/06/26 05:30:38;;;;;;;11.70;10.60;;;;;;;19.27;100.00;100137.20;105790;1259;59617;-42
2023/06/26 05:33:07;;;;;;;12.50;11.00;;;;;;;19.26;100.00;100142.70;105552;1255;71768;-40
2023/06/26 05:35:35;;;;;;;9.70;8.70;;;;;;;19.24;100.00;100151.55;105627;1254;65282;-43
2023/06/26 05:38:03;;;;;;;9.60;8.70;;;;;;;19.27;100.00;100163.29;105703;1260;73088;-43
2023/06/26 05:40:32;;;;;;;10.00;8.30;;;;;;;19.28;100.00;100177.20;105572;1259;60855;-43
2023/06/26 05:43:00;;;;;;;10.00;7.70;;;;;;;19.32;100.00;100187.98;105620;1259;60350;-43
2023/06/26 05:45:27;;;;;;;8.40;7.50;;;;;;;19.43;100.00;100198.89;105627;1259;73381;-42
2023/06/26 05:47:55;;;;;;;8.10;7.00;;;;;;;19.56;100.00;100208.80;105566;1259;64351;-41
2023/06/26 05:50:25;;;;;;;8.30;7.10;;;;;;;19.67;100.00;100224.55;105554;1259;72050;-42
2023/06/26 05:52:54;;;;;;;11.40;7.20;;;;;;;19.79;100.00;100246.06;105643;1258;60531;-41
2023/06/26 05:55:22;;;;;;;7.50;6.70;;;;;;;19.91;100.00;100270.81;105677;1258;60347;-41
2023/06/26 05:57:50;;;;;;;7.90;7.30;;;;;;;19.92;100.00;100298.78;105628;1259;73810;-43
2023/06/26 06:00:19;;;;;;;11.50;9.30;;;;;;;19.95;100.00;100325.52;105630;1259;65312;-42
2023/06/26 06:02:46;;;;;;;10.80;9.70;;;;;;;20.01;100.00;100352.14;105537;1258;72707;-44
2023/06/26 06:05:14;;;;;;;13.10;9.20;;;;;;;19.97;100.00;100398.27;105594;1260;60534;-41
2023/06/26 06:07:42;;;;;;;8.10;7.50;;;;;;;19.94;100.00;100446.94;105603;1255;60296;-44
2023/06/26 06:10:10;;;;;;;7.30;6.50;;;;;;;19.96;100.00;100478.89;105607;1259;73067;-43
2023/06/26 06:12:37;;;;;;;7.00;6.40;;;;;;;19.94;100.00;100497.38;105672;1254;63947;-44
2023/06/26 06:15:06;;;;;;;6.90;6.30;;;;;;;19.99;100.00;100507.05;105624;1258;72743;-44
2023/06/26 06:17:34;;;;;;;8.10;7.30;;;;;;;20.07;100.00;100504.52;105629;1260;60469;-42
2023/06/26 06:20:03;;;;;;;7.50;6.80;;;;;;;20.15;100.00;100501.42;105621;1258;60429;-42
2023/06/26 06:22:30;;;;;;;7.00;6.30;;;;;;;20.31;100.00;100500.52;105655;1254;73770;-45
2023/06/26 06:24:58;;;;;;;7.60;5.90;;;;;;;20.47;100.00;100491.14;105570;1259;64884;-41
2023/06/26 06:27:25;;;;;;;7.50;6.30;;;;;;;20.63;100.00;100487.04;105587;1259;71670;-42
2023/06/26 06:29:53;;;;;;;9.90;6.50;;;;;;;20.77;100.00;100473.42;105721;1258;60417;-44
2023/06/26 06:32:21;;;;;;;7.70;6.00;;;;;;;20.90;100.00;100461.61;105603;1260;60566;-44
2023/06/26 06:34:48;;;;;;;6.10;5.50;;;;;;;21.05;100.00;100441.58;105567;1255;73784;-42
2023/06/26 06:37:16;;;;;;;7.10;6.30;;;;;;;21.24;100.00;100411.27;105612;1257;65394;-43
2023/06/26 06:39:44;;;;;;;6.60;6.10;;;;;;;21.45;100.00;100390.27;105601;1259;71443;-43
2023/06/26 06:42:11;;;;;;;6.60;6.10;;;;;;;21.69;100.00;100332.58;105647;1255;63451;-43
2023/06/26 06:44:39;;;;;;;6.80;5.60;;;;;;;21.93;100.00;100188.31;105541;1267;60364;-45
2023/06/26 06:47:07;;;;;;;6.10;5.60;;;;;;;22.22;100.00;100050.98;105544;1256;72650;-43
2023/06/26 06:49:34;;;;;;;7.10;6.40;;;;;;;22.48;100.00;99934.48;105637;1253;63398;-45
2023/06/26 06:52:03;;;;;;;7.70;5.80;;;;;;;22.60;100.00;99806.51;105589;1268;73163;-43
2023/06/26 06:54:30;;;;;;;7.50;5.90;;;;;;;22.52;100.00;99651.52;105568;1257;60518;-42
2023/06/26 06:56:58;;;;;;;9.60;6.30;;;;;;;22.29;100.00;99570.97;105585;1258;60339;-41
2023/06/26 06:59:26;;;;;;;7.30;5.90;;;;;;;22.13;100.00;99580.14;105318;1254;72555;-44
2023/06/26 07:01:53;;;;;;;12.00;6.30;;;;;;;22.11;100.00;99599.77;105556;1260;63932;-43
2023/06/26 07:04:21;;;;;;;8.50;6.10;;;;;;;22.28;100.00;99623.92;105566;1264;73155;-43
2023/06/26 07:06:49;;;;;;;11.00;6.60;;;;;;;22.59;100.00;99634.63;105636;1259;61650;-46
2023/06/26 07:09:17;;;;;;;9.20;7.20;;;;;;;22.96;100.00;99599.96;105579;1260;60301;-43
2023/06/26 07:11:46;;;;;;;9.20;7.20;;;;;;;23.26;100.00;99550.14;105603;1255;73692;-41
2023/06/26 07:14:13;;;;;;;6.90;6.30;;;;;;;23.35;100.00;99526.09;105702;1254;63790;-44
2023/06/26 07:16:41;;;;;;;7.30;6.60;;;;;;;23.54;100.00;99531.88;105551;1259;72733;-45
2023/06/26 07:19:09;;;;;;;9.50;6.60;;;;;;;23.50;100.00;99554.55;105639;1257;60489;-44
2023/06/26 07:21:36;;;;;;;7.90;7.20;;;;;;;23.40;100.00;99566.00;105612;1268;60339;-44
2023/06/26 07:24:04;;;;;;;8.30;6.90;;;;;;;23.30;100.00;99570.36;105611;1255;72732;-43
2023/06/26 07:26:32;;;;;;;9.20;6.90;;;;;;;23.18;100.00;99574.70;105587;1260;64372;-44
2023/06/26 07:29:12;;;;;;;8.20;7.40;;;;;;;22.96;100.00;99584.42;105725;1266;72521;-42
2023/06/26 07:31:40;;;;;;;8.70;7.90;;;;;;;22.69;100.00;99579.63;105780;1254;60405;-42
2023/06/26 07:34:08;;;;;;;8.40;6.80;;;;;;;22.51;100.00;99573.81;105803;1257;60325;-45
2023/06/26 07:36:35;;;;;;;12.90;7.30;;;;;;;22.35;100.00;99566.41;105764;1257;71991;-42
2023/06/26 07:39:03;;;;;;;9.40;7.50;;;;;;;22.13;100.00;99572.21;105550;1259;63929;-44
2023/06/26 07:41:31;;;;;;;8.20;7.40;;;;;;;22.05;100.00;99582.54;105748;1254;71394;-43
2023/06/26 07:43:59;;;;;;;9.40;7.40;;;;;;;22.11;100.00;99589.06;105866;1254;60536;-42
2023/06/26 07:46:26;;;;;;;10.30;7.30;;;;;;;22.18;100.00;99590.27;105851;1251;60421;-41
2023/06/26 07:48:54;;;;;;;10.70;7.40;;;;;;;22.18;100.00;99561.00;105798;1257;72568;-43
2023/06/26 07:51:22;;;;;;;9.10;7.10;;;;;;;22.07;100.00;99560.44;105797;1252;65296;-43
2023/06/26 07:53:49;;;;;;;7.10;6.40;;;;;;;21.99;100.00;99568.83;105675;1256;71369;-44
2023/06/26 07:56:17;;;;;;;7.40;6.70;;;;;;;21.84;100.00;99575.45;105635;1257;62610;-41
2023/06/26 07:58:45;;;;;;;8.80;6.70;;;;;;;21.68;100.00;99578.58;105888;1254;60577;-41
2023/06/26 08:01:13;;;;;;;9.50;6.50;;;;;;;21.60;100.00;99588.66;105575;1258;72839;-44
2023/06/26 08:03:41;;;;;;;8.10;7.30;;;;;;;21.53;100.00;99606.25;105602;1254;63931;-43
2023/06/26 08:06:09;;;;;;;8.30;7.10;;;;;;;21.44;100.00;99620.30;105602;1258;71436;-43
2023/06/26 08:08:39;;;;;;;11.00;6.80;;;;;;;21.40;100.00;99649.87;105598;1258;60429;-43
2023/06/26 08:11:06;;;;;;;13.30;7.10;;;;;;;21.38;100.00;99681.11;105621;1258;60364;-43
2023/06/26 08:13:34;;;;;;;19.50;8.30;;;;;;;21.26;100.00;99685.66;105550;1259;73123;-44
2023/06/26 08:16:01;;;;;;;11.20;7.50;;;;;;;21.15;100.00;99699.13;105680;1254;63483;-41
2023/06/26 08:18:29;;;;;;;9.30;8.30;;;;;;;21.03;100.00;99737.15;105751;1255;71513;-41
2023/06/26 08:20:57;;;;;;;13.00;8.60;;;;;;;20.96;100.00;99777.67;105532;1257;60476;-43
2023/06/26 08:23:24;;;;;;;13.00;7.90;;;;;;;20.92;100.00;99808.44;105588;1260;60431;-43
2023/06/26 08:25:53;;;;;;;19.10;8.30;;;;;;;20.96;100.00;99848.33;105658;1259;72562;-43
2023/06/26 08:28:21;;;;;;;11.30;8.50;;;;;;;21.03;100.00;99868.19;105686;1260;63999;-43
2023/06/26 08:30:49;;;;;;;9.30;8.00;;;;;;;21.06;100.00;99876.70;105775;1255;71704;-42
2023/06/26 08:33:17;;;;;;;11.30;8.50;;;;;;;21.09;100.00;99864.78;105820;1255;60536;-43
2023/06/26 08:35:44;;;;;;;8.90;7.20;;;;;;;21.15;100.00;99854.20;105765;1254;60772;-44
2023/06/26 08:38:12;;;;;;;10.60;6.70;;;;;;;21.11;100.00;99796.37;105745;1254;72512;-41
2023/06/26 08:40:40;;;;;;;7.30;6.40;;;;;;;21.04;100.00;99758.81;105678;1254;63985;-43
2023/06/26 08:43:10;;;;;;;10.40;7.00;;;;;;;21.10;100.00;99765.08;105642;1259;72674;-45
2023/06/26 08:45:37;;;;;;;7.40;6.70;;;;;;;21.33;100.00;99778.86;105578;1254;60517;-44
2023/06/26 08:48:07;;;;;;;7.40;6.30;;;;;;;21.67;100.00;99742.98;105574;1259;60346;-40
2023/06/26 08:50:35;;;;;;;7.10;6.20;;;;;;;22.15;100.00;99670.83;105632;1254;72523;-42
2023/06/26 08:53:31;;;;;;;6.60;5.90;;;;;;;22.71;100.00;99605.02;105628;1260;64028;-43
2023/06/26 08:55:59;;;;;;;6.20;5.60;;;;;;;23.15;100.00;99527.08;105653;1254;72599;-41
2023/06/26 08:58:27;;;;;;;6.00;5.40;;;;;;;23.39;100.00;99508.37;105589;1254;60505;-44
2023/06/26 09:00:55;;;;;;;5.60;5.20;;;;;;;23.58;100.00;99535.34;105538;1254;60012;-43
2023/06/26 09:03:24;;;;;;;6.10;5.40;;;;;;;23.70;100.00;99608.99;105587;1260;73811;-46
2023/06/26 09:05:52;;;;;;;7.20;5.00;;;;;;;23.63;100.00;99642.36;105529;1260;64530;-42
2023/06/26 09:08:19;;;;;;;7.60;5.50;;;;;;;23.53;100.00;99670.69;105564;1259;71443;-43
2023/06/26 09:10:47;;;;;;;5.20;4.80;;;;;;;23.59;100.00;99657.83;105499;1259;60460;-43
2023/06/26 09:13:16;;;;;;;6.80;4.80;;;;;;;23.68;100.00;99662.38;105725;1260;60466;-45
2023/06/26 09:15:56;;;;;;;11.80;4.60;;;;;;;23.83;100.00;99664.75;105594;1254;73995;-45
2023/06/26 09:18:24;;;;;;;5.70;4.90;;;;;;;24.12;100.00;99688.58;105580;1261;63927;-43
2023/06/26 09:20:52;;;;;;;4.90;4.50;;;;;;;24.33;100.00;99713.56;105560;1254;72281;-46
2023/06/26 09:23:22;;;;;;;7.00;4.60;;;;;;;24.38;100.00;99737.11;105531;1260;60492;-45
2023/06/26 09:25:51;;;;;;;4.70;4.40;;;;;;;24.46;100.00;99744.80;105582;1257;60394;-42
2023/06/26 09:28:18;;;;;;;4.70;4.30;;;;;;;24.62;100.00;99742.33;105561;1254;73776;-47
2023/06/26 09:30:46;;;;;;;5.10;3.80;;;;;;;24.68;100.00;99780.44;109070;1253;65295;-43
2023/06/26 09:33:20;;;;;;;5.20;4.00;;;;;;;24.79;100.00;99788.91;109207;1255;71460;-43
2023/06/26 09:38:45;;;;;;;4.70;4.20;;;;;;;25.39;100.00;99798.89;102810;1292;600948;-45
2023/06/26 09:41:19;;;;;;;6.40;4.10;;;;;;;25.42;100.00;99798.26;104802;1270;59349;-42
2023/06/26 09:43:51;;;;;;;4.10;3.90;;;;;;;25.18;100.00;99822.81;104808;1270;59349;-42
2023/06/26 09:46:28;;;;;;;4.20;3.80;;;;;;;24.97;100.00;99833.38;104927;1264;71909;-45
2023/06/26 09:49:05;;;;;;;10.10;4.10;;;;;;;24.71;100.00;99832.20;104845;1264;65387;-43
2023/06/26 09:51:34;;;;;;;3.90;3.50;;;;;;;24.55;100.00;99838.71;104686;1272;223215;-44
2023/06/26 09:54:03;;;;;;;3.70;3.50;;;;;;;24.61;100.00;99820.73;105107;1266;60069;-41
2023/06/26 09:56:31;;;;;;;3.40;3.10;;;;;;;24.76;100.00;99793.39;105046;1262;60410;-42
2023/06/26 09:59:03;;;;;;;5.40;3.20;;;;;;;24.76;100.00;99789.47;105109;1264;72199;-44
2023/06/26 10:01:31;;;;;;;3.50;3.20;;;;;;;24.60;100.00;99801.82;105270;1264;65186;-42
2023/06/26 10:04:00;;;;;;;7.20;3.00;;;;;;;24.48;100.00;99809.23;105229;1260;72579;-43
2023/06/26 10:06:36;;;;;;;6.00;2.90;;;;;;;24.54;100.00;99795.45;105173;1267;60359;-44
2023/06/26 10:09:04;;;;;;;3.80;2.90;;;;;;;24.61;100.00;99784.57;105514;1264;59631;-44
2023/06/26 10:11:40;;;;;;;10.30;3.10;;;;;;;24.59;100.00;99789.84;105298;1259;71746;-44
2023/06/26 10:14:09;;;;;;;5.20;3.30;;;;;;;24.59;100.00;99801.67;105371;1264;65802;-42
2023/06/26 10:16:45;;;;;;;6.70;3.40;;;;;;;24.66;100.00;99791.36;105225;1263;71396;-45
2023/06/26 10:19:13;;;;;;;7.30;3.30;;;;;;;24.76;100.00;99796.23;105322;1263;60024;-42
2023/06/26 10:21:41;;;;;;;9.80;3.60;;;;;;;24.97;100.00;99770.50;105158;1267;59545;-45
2023/06/26 10:24:08;;;;;;;9.50;2.70;;;;;;;24.94;100.00;99804.80;105175;1266;72211;-45
2023/06/26 10:26:38;;;;;;;3.80;2.80;;;;;;;25.03;100.00;99786.21;105269;1263;64204;-44
2023/06/26 10:29:06;;;;;;;3.10;2.80;;;;;;;25.05;100.00;99797.50;105343;1261;72695;-42
2023/06/26 10:31:33;;;;;;;3.90;2.80;;;;;;;25.03;96.61;99777.93;105341;1266;59830;-44
2023/06/26 10:34:01;;;;;;;2.90;2.80;;;;;;;24.95;88.66;99775.27;105161;1267;59596;-43
2023/06/26 10:36:32;;;;;;;6.70;3.20;;;;;;;24.78;84.86;99779.80;105172;1267;71488;-44
2023/06/26 10:39:07;;;;;;;3.60;2.90;;;;;;;24.68;83.28;99783.27;105183;1260;65339;-42
2023/06/26 10:41:42;;;;;;;4.90;2.70;;;;;;;24.54;77.99;99759.27;105131;1266;71449;-44
2023/06/26 10:44:30;;;;;;;4.60;2.20;;;;;;;24.40;74.27;99744.08;105216;1267;59806;-43
2023/06/26 10:46:58;;;;;;;2.10;2.00;;;;;;;24.33;72.34;99740.45;105224;1264;59635;-42
2023/06/26 10:49:28;;;;;;;2.30;2.10;;;;;;;24.31;67.52;99678.05;105607;1254;72148;-45
2023/06/26 10:51:58;;;;;;;5.10;2.00;;;;;;;24.32;68.48;99726.79;105633;1260;63913;-45
2023/06/26 10:54:29;;;;;;;3.00;1.90;;;;;;;24.48;66.22;99690.00;105585;1263;71344;-45
2023/06/26 10:56:57;;;;;;;5.20;1.80;;;;;;;24.57;64.69;99680.17;105620;1260;60639;-45
2023/06/26 10:59:26;;;;;;;4.10;2.30;;;;;;;24.65;63.26;99665.02;105554;1260;59692;-42
2023/06/26 11:01:56;;;;;;;6.70;2.10;;;;;;;24.60;65.01;99710.64;105532;1254;72270;-45
2023/06/26 11:04:40;;;;;;;3.00;2.30;;;;;;;24.82;66.68;99752.40;105588;1260;64196;-43
2023/06/26 11:07:16;;;;;;;3.30;2.00;;;;;;;25.14;62.72;99658.52;105507;1257;72979;-41
2023/06/26 11:09:54;;;;;;;4.10;2.30;;;;;;;25.27;62.74;99670.44;105661;1261;59835;-43
2023/06/26 11:12:42;;;;;;;2.10;2.00;;;;;;;25.37;61.70;99657.49;105649;1260;59542;-44
2023/06/26 11:15:12;;;;;;;4.30;2.40;;;;;;;25.34;62.57;99703.27;105501;1260;73470;-45
2023/06/26 11:17:41;;;;;;;4.20;2.00;;;;;;;25.48;63.67;99732.02;105558;1254;64637;-44
2023/06/26 11:20:13;;;;;;;1.80;1.80;;;;;;;25.55;63.19;99716.77;105490;1254;72648;-42